Time;durP1;ratioP1;P1;durP2;ratioP2;P2;SDS_P1;SDS_P2;PMS_P1;PMS_P2;Temp;Humidity;BMP_temperature;BMP_pressure;BME280_temperature;BME280_humidity;BME280_pressure;Samples;Min_cycle;Max_cycle;Signal;HPM_P1;HPM_P2
2023/10/23 00:01:52;;;;;;;6.37;4.43;;;;;;;;;;5053736;28;20075;-73
2023/10/23 00:04:17;;;;;;;9.57;5.22;;;;;;;;;;5054458;28;20283;-73
2023/10/23 00:06:42;;;;;;;12.33;5.67;;;;;;;;;;5066505;28;20051;-73
2023/10/23 00:09:08;;;;;;;10.10;5.47;;;;;;;;;;5073298;28;20291;-73
2023/10/23 00:11:33;;;;;;;10.77;5.90;;;;;;;;;;5074751;28;20060;-72
2023/10/23 00:13:58;;;;;;;9.87;5.73;;;;;;;;;;5075082;28;20247;-73
2023/10/23 00:16:23;;;;;;;12.77;5.53;;;;;;;;;;5075409;28;20267;-73
2023/10/23 00:18:49;;;;;;;11.50;5.63;;;;;;;;;;5076569;28;20032;-73
2023/10/23 00:21:14;;;;;;;12.75;5.78;;;;;;;;;;5076526;28;20017;-72
2023/10/23 00:23:39;;;;;;;8.85;5.45;;;;;;;;;;5076549;28;20426;-73
2023/10/23 00:26:05;;;;;;;9.63;5.80;;;;;;;;;;5077127;28;20009;-72
2023/10/23 00:28:30;;;;;;;8.90;5.80;;;;;;;;;;5060240;28;20032;-72
2023/10/23 00:30:57;;;;;;;10.80;6.40;;;;;;;;;;5077631;28;20041;-72
2023/10/23 00:33:22;;;;;;;12.45;6.47;;;;;;;;;;5077752;28;20029;-72
2023/10/23 00:35:47;;;;;;;9.83;5.87;;;;;;;;;;5077919;28;20081;-72
2023/10/23 00:38:12;;;;;;;9.43;5.63;;;;;;;;;;5078045;28;20255;-72
2023/10/23 00:40:37;;;;;;;12.97;5.93;;;;;;;;;;5078077;28;20274;-73
2023/10/23 00:43:34;;;;;;;12.60;5.93;;;;;;;;;;5078010;28;20263;-73
2023/10/23 00:46:00;;;;;;;8.82;5.35;;;;;;;;;;5061817;28;20302;-73
2023/10/23 00:48:26;;;;;;;7.95;5.28;;;;;;;;;;5075859;28;20087;-73
2023/10/23 00:50:52;;;;;;;12.40;5.70;;;;;;;;;;5058688;28;20029;-73
2023/10/23 00:53:18;;;;;;;10.30;5.38;;;;;;;;;;5057805;28;20108;-73
2023/10/23 00:55:44;;;;;;;9.90;5.57;;;;;;;;;;5057548;28;20499;-73
2023/10/23 00:58:09;;;;;;;12.23;5.90;;;;;;;;;;5040065;28;20028;-73
2023/10/23 01:00:35;;;;;;;9.50;5.75;;;;;;;;;;5060015;28;20427;-73
2023/10/23 01:03:00;;;;;;;11.82;6.18;;;;;;;;;;5059036;28;20024;-73
2023/10/23 01:05:25;;;;;;;10.48;5.50;;;;;;;;;;5058004;28;20380;-73
2023/10/23 01:07:50;;;;;;;12.82;5.93;;;;;;;;;;5057810;28;20053;-74
2023/10/23 01:10:16;;;;;;;11.57;5.67;;;;;;;;;;5057121;28;20024;-73
2023/10/23 01:12:41;;;;;;;12.57;6.10;;;;;;;;;;5056766;28;20361;-73
2023/10/23 01:15:06;;;;;;;10.60;5.87;;;;;;;;;;5056772;28;20021;-73
2023/10/23 01:17:32;;;;;;;13.57;6.35;;;;;;;;;;5056408;28;20326;-73
2023/10/23 01:19:57;;;;;;;10.90;5.97;;;;;;;;;;5056249;28;20424;-73
2023/10/23 01:22:22;;;;;;;11.45;6.30;;;;;;;;;;5056220;28;20122;-73
2023/10/23 01:24:48;;;;;;;12.67;7.07;;;;;;;;;;5055973;28;20498;-73
2023/10/23 01:27:13;;;;;;;11.73;7.20;;;;;;;;;;5056059;28;20263;-74
2023/10/23 01:29:39;;;;;;;16.35;8.77;;;;;;;;;;5055663;28;20035;-73
2023/10/23 01:32:04;;;;;;;12.97;8.53;;;;;;;;;;5055812;28;20051;-73
2023/10/23 01:34:29;;;;;;;12.70;8.30;;;;;;;;;;5055866;28;20256;-73
2023/10/23 01:36:54;;;;;;;12.13;8.20;;;;;;;;;;5037741;28;20072;-74
2023/10/23 01:39:20;;;;;;;16.85;9.32;;;;;;;;;;5055735;28;20078;-73
2023/10/23 01:41:45;;;;;;;16.17;8.10;;;;;;;;;;5055723;28;20027;-73
2023/10/23 01:44:10;;;;;;;16.13;8.90;;;;;;;;;;5037601;28;20263;-73
2023/10/23 01:46:35;;;;;;;14.93;8.70;;;;;;;;;;5055412;28;20021;-73
2023/10/23 01:49:00;;;;;;;15.70;8.10;;;;;;;;;;5055469;28;20025;-73
2023/10/23 01:51:26;;;;;;;16.07;8.83;;;;;;;;;;5055262;28;20742;-73
2023/10/23 01:53:51;;;;;;;14.32;8.40;;;;;;;;;;5055230;28;20683;-73
2023/10/23 01:56:16;;;;;;;14.60;8.97;;;;;;;;;;5055469;28;20052;-73
2023/10/23 01:58:42;;;;;;;17.88;8.38;;;;;;;;;;5055327;28;20742;-74
2023/10/23 02:01:17;;;;;;;16.42;8.55;;;;;;;;;;5055266;28;20425;-73
2023/10/23 02:03:42;;;;;;;11.88;7.60;;;;;;;;;;5055282;28;20025;-74
2023/10/23 02:06:07;;;;;;;13.70;7.93;;;;;;;;;;5055063;28;20110;-74
2023/10/23 02:08:32;;;;;;;12.97;8.47;;;;;;;;;;5054797;28;20526;-74
2023/10/23 02:10:57;;;;;;;14.83;7.40;;;;;;;;;;5054855;28;20275;-74
2023/10/23 02:13:23;;;;;;;11.63;7.70;;;;;;;;;;5054893;28;20413;-74
2023/10/23 02:15:48;;;;;;;11.03;8.20;;;;;;;;;;5054940;28;20251;-74
2023/10/23 02:18:13;;;;;;;11.40;8.23;;;;;;;;;;5054940;28;20306;-73
2023/10/23 02:20:38;;;;;;;14.87;8.20;;;;;;;;;;5054989;28;20634;-74
2023/10/23 02:23:03;;;;;;;13.73;8.57;;;;;;;;;;5054717;28;20274;-73
2023/10/23 02:25:28;;;;;;;14.83;7.90;;;;;;;;;;5054802;28;20259;-73
2023/10/23 02:27:53;;;;;;;10.83;7.67;;;;;;;;;;5054841;28;20270;-73
2023/10/23 02:30:19;;;;;;;11.23;7.20;;;;;;;;;;5054573;28;20685;-73
2023/10/23 02:32:44;;;;;;;15.10;7.53;;;;;;;;;;5054959;28;20298;-73
2023/10/23 02:35:09;;;;;;;12.50;7.40;;;;;;;;;;5054559;28;20025;-73
2023/10/23 02:37:34;;;;;;;11.27;7.13;;;;;;;;;;5054456;28;20810;-73
2023/10/23 02:39:59;;;;;;;10.33;6.87;;;;;;;;;;5054693;28;20271;-74
2023/10/23 02:42:24;;;;;;;13.27;7.20;;;;;;;;;;5036577;28;20307;-73
2023/10/23 02:44:50;;;;;;;12.47;7.33;;;;;;;;;;5054356;28;20264;-73
2023/10/23 02:47:15;;;;;;;12.90;7.30;;;;;;;;;;5054210;28;20267;-74
2023/10/23 02:49:40;;;;;;;12.75;7.80;;;;;;;;;;5054207;28;20361;-74
2023/10/23 02:52:05;;;;;;;12.18;7.18;;;;;;;;;;5054289;28;20009;-73
2023/10/23 02:54:30;;;;;;;13.35;7.80;;;;;;;;;;5054250;28;20024;-73
2023/10/23 02:56:56;;;;;;;13.63;8.13;;;;;;;;;;5054159;28;20480;-73
2023/10/23 02:59:21;;;;;;;12.70;8.10;;;;;;;;;;5054129;28;20025;-74
2023/10/23 03:01:46;;;;;;;11.15;7.22;;;;;;;;;;5054074;28;20260;-73
2023/10/23 03:04:11;;;;;;;12.17;7.60;;;;;;;;;;5053906;28;20070;-73
2023/10/23 03:06:36;;;;;;;12.80;7.43;;;;;;;;;;5053951;28;20282;-73
2023/10/23 03:09:03;;;;;;;10.68;7.38;;;;;;;;;;5053832;28;20259;-73
2023/10/23 03:11:28;;;;;;;14.35;7.63;;;;;;;;;;5053812;28;20073;-73
2023/10/23 03:13:53;;;;;;;13.07;7.63;;;;;;;;;;5054201;28;20051;-74
2023/10/23 03:16:19;;;;;;;11.65;7.47;;;;;;;;;;5054004;28;20055;-73
2023/10/23 03:18:45;;;;;;;16.40;8.13;;;;;;;;;;5054006;28;20083;-73
2023/10/23 03:21:10;;;;;;;12.60;7.77;;;;;;;;;;5035190;28;20267;-73
2023/10/23 03:23:35;;;;;;;18.50;7.95;;;;;;;;;;5053653;28;20252;-73
2023/10/23 03:26:01;;;;;;;15.13;8.02;;;;;;;;;;5053768;28;20059;-73
2023/10/23 03:28:26;;;;;;;15.80;8.23;;;;;;;;;;5035832;28;20054;-73
2023/10/23 03:30:52;;;;;;;12.48;7.85;;;;;;;;;;5053456;28;20036;-73
2023/10/23 03:33:17;;;;;;;14.52;8.25;;;;;;;;;;5053747;28;20027;-74
2023/10/23 03:35:42;;;;;;;26.40;9.48;;;;;;;;;;5053460;28;20460;-74
2023/10/23 03:38:08;;;;;;;33.75;9.35;;;;;;;;;;5053920;28;20032;-73
2023/10/23 03:40:33;;;;;;;22.13;8.93;;;;;;;;;;5053797;28;20021;-73
2023/10/23 03:42:58;;;;;;;26.50;8.97;;;;;;;;;;5054150;28;20032;-73
2023/10/23 03:45:23;;;;;;;19.30;8.70;;;;;;;;;;5053863;28;20347;-74
2023/10/23 03:47:48;;;;;;;17.00;9.65;;;;;;;;;;5053297;28;20256;-73
2023/10/23 03:50:14;;;;;;;19.50;9.70;;;;;;;;;;5053497;28;20021;-73
2023/10/23 03:52:39;;;;;;;21.08;9.60;;;;;;;;;;5053441;28;20376;-73
2023/10/23 03:55:04;;;;;;;25.95;10.07;;;;;;;;;;5053263;28;20028;-73
2023/10/23 03:57:29;;;;;;;25.98;12.05;;;;;;;;;;5053126;28;20017;-73
2023/10/23 03:59:55;;;;;;;45.70;11.77;;;;;;;;;;5053499;28;20025;-73
2023/10/23 04:02:20;;;;;;;57.90;11.70;;;;;;;;;;5054932;28;20267;-73
2023/10/23 04:04:45;;;;;;;38.23;12.27;;;;;;;;;;5055968;28;20341;-73
2023/10/23 04:07:10;;;;;;;57.77;12.23;;;;;;;;;;5056787;28;20267;-72
2023/10/23 04:09:35;;;;;;;75.07;13.52;;;;;;;;;;5056498;28;20283;-72
2023/10/23 04:12:01;;;;;;;84.63;13.57;;;;;;;;;;5055657;28;20044;-72
2023/10/23 04:14:26;;;;;;;69.72;10.57;;;;;;;;;;5057561;28;20283;-73
2023/10/23 04:16:51;;;;;;;119.15;10.50;;;;;;;;;;5058096;28;20091;-73
2023/10/23 04:19:16;;;;;;;130.57;11.43;;;;;;;;;;5054376;28;20016;-73
2023/10/23 04:21:42;;;;;;;158.90;12.23;;;;;;;;;;5054507;28;20025;-73
2023/10/23 04:24:09;;;;;;;105.13;11.30;;;;;;;;;;5053723;28;20619;-74
2023/10/23 04:26:34;;;;;;;139.25;12.55;;;;;;;;;;5035913;28;20267;-73
2023/10/23 04:28:59;;;;;;;167.98;13.77;;;;;;;;;;5053687;28;20017;-73
2023/10/23 04:31:24;;;;;;;144.90;13.43;;;;;;;;;;5035703;28;20013;-73
2023/10/23 04:33:49;;;;;;;141.43;11.07;;;;;;;;;;5039454;28;20267;-73
2023/10/23 04:36:15;;;;;;;97.60;9.87;;;;;;;;;;5057167;28;20341;-74
2023/10/23 04:38:40;;;;;;;98.60;10.33;;;;;;;;;;5056994;28;20266;-74
2023/10/23 04:41:05;;;;;;;76.20;10.48;;;;;;;;;;5056803;28;20268;-74
2023/10/23 04:43:30;;;;;;;114.87;10.17;;;;;;;;;;5038974;28;20016;-74
2023/10/23 04:45:56;;;;;;;119.28;10.45;;;;;;;;;;5056611;28;20264;-74
2023/10/23 04:48:21;;;;;;;63.55;11.07;;;;;;;;;;5056771;28;20472;-74
2023/10/23 04:50:46;;;;;;;65.15;9.18;;;;;;;;;;5056471;28;20095;-73
2023/10/23 04:53:12;;;;;;;91.67;12.73;;;;;;;;;;5056428;28;20100;-74
2023/10/23 04:55:40;;;;;;;128.43;10.05;;;;;;;;;;5056441;28;20623;-73
2023/10/23 04:58:06;;;;;;;150.45;12.82;;;;;;;;;;5056721;28;20092;-73
2023/10/23 05:00:34;;;;;;;127.10;10.07;;;;;;;;;;5056490;28;20025;-74
2023/10/23 05:02:59;;;;;;;115.72;10.40;;;;;;;;;;5056242;28;20083;-73
2023/10/23 05:05:24;;;;;;;147.07;12.67;;;;;;;;;;5056378;28;20020;-73
2023/10/23 05:07:49;;;;;;;170.88;11.35;;;;;;;;;;5056174;28;20731;-73
2023/10/23 05:10:14;;;;;;;131.90;10.93;;;;;;;;;;5038273;28;20023;-73
2023/10/23 05:12:39;;;;;;;116.03;12.47;;;;;;;;;;5056230;28;20287;-73
2023/10/23 05:15:05;;;;;;;114.13;11.00;;;;;;;;;;5056223;28;20290;-73
2023/10/23 05:17:30;;;;;;;182.40;14.68;;;;;;;;;;5055973;28;20252;-73
2023/10/23 05:19:56;;;;;;;157.45;11.10;;;;;;;;;;5038253;28;20040;-73
2023/10/23 05:22:21;;;;;;;195.32;14.15;;;;;;;;;;5055986;28;20075;-74
2023/10/23 05:24:46;;;;;;;135.40;12.10;;;;;;;;;;5056031;28;20025;-74
2023/10/23 05:27:12;;;;;;;109.45;11.32;;;;;;;;;;5056060;28;20088;-74
2023/10/23 05:29:37;;;;;;;189.07;13.73;;;;;;;;;;5037796;28;20116;-74
2023/10/23 05:32:03;;;;;;;114.07;11.20;;;;;;;;;;5038027;28;20079;-74
2023/10/23 05:34:28;;;;;;;146.30;14.55;;;;;;;;;;5055716;28;20317;-74
2023/10/23 05:36:53;;;;;;;85.00;9.40;;;;;;;;;;5055748;28;20067;-74
2023/10/23 05:39:18;;;;;;;122.78;12.20;;;;;;;;;;5021408;28;20630;-74
2023/10/23 05:41:44;;;;;;;99.95;9.98;;;;;;;;;;5055713;28;20017;-74
2023/10/23 05:44:09;;;;;;;103.85;9.85;;;;;;;;;;5037151;28;20430;-73
2023/10/23 05:46:34;;;;;;;93.75;10.27;;;;;;;;;;5055533;28;20479;-74
2023/10/23 05:48:59;;;;;;;64.40;9.70;;;;;;;;;;5055585;28;20040;-74
2023/10/23 05:51:25;;;;;;;73.03;9.90;;;;;;;;;;5037340;28;20107;-74
2023/10/23 05:53:50;;;;;;;47.58;8.98;;;;;;;;;;5037428;28;20377;-74
2023/10/23 05:56:15;;;;;;;57.50;9.27;;;;;;;;;;5055383;28;20395;-74
2023/10/23 05:58:40;;;;;;;71.03;10.07;;;;;;;;;;5055399;28;20259;-74
2023/10/23 06:01:12;;;;;;;29.07;9.20;;;;;;;;;;5055359;28;20021;-74
2023/10/23 06:03:38;;;;;;;41.65;10.43;;;;;;;;;;5055208;28;20370;-74
2023/10/23 06:06:03;;;;;;;43.92;9.77;;;;;;;;;;5055370;28;20435;-74
2023/10/23 06:08:29;;;;;;;37.25;10.20;;;;;;;;;;5055187;28;20460;-74
2023/10/23 06:10:54;;;;;;;65.28;14.00;;;;;;;;;;5055134;28;20021;-74
2023/10/23 06:13:20;;;;;;;31.83;10.90;;;;;;;;;;5054841;28;20037;-74
2023/10/23 06:15:46;;;;;;;37.47;11.25;;;;;;;;;;5054952;28;20251;-73
2023/10/23 06:18:11;;;;;;;38.33;10.30;;;;;;;;;;5054904;28;20362;-74
2023/10/23 06:20:36;;;;;;;54.63;10.50;;;;;;;;;;5054909;28;20040;-74
2023/10/23 06:23:01;;;;;;;42.63;11.50;;;;;;;;;;5054962;28;20274;-75
2023/10/23 06:25:29;;;;;;;47.88;10.65;;;;;;;;;;5054911;28;20338;-74
2023/10/23 06:27:54;;;;;;;48.13;11.98;;;;;;;;;;5054826;28;20024;-74
2023/10/23 06:30:21;;;;;;;47.20;10.38;;;;;;;;;;5054470;28;20068;-73
2023/10/23 06:32:46;;;;;;;71.35;9.90;;;;;;;;;;5036097;28;20021;-73
2023/10/23 06:35:11;;;;;;;45.23;9.80;;;;;;;;;;5054063;28;20468;-73
2023/10/23 06:37:37;;;;;;;45.87;9.50;;;;;;;;;;5053909;28;20329;-74
2023/10/23 06:40:02;;;;;;;47.15;9.52;;;;;;;;;;5035811;28;20275;-74
2023/10/23 06:42:28;;;;;;;36.15;9.35;;;;;;;;;;5053909;28;20031;-72
2023/10/23 06:44:53;;;;;;;29.23;9.17;;;;;;;;;;5036084;28;20021;-74
2023/10/23 06:47:18;;;;;;;31.80;8.98;;;;;;;;;;5054286;28;20426;-73
2023/10/23 06:49:44;;;;;;;45.75;9.45;;;;;;;;;;5054185;28;20357;-74
2023/10/23 06:52:09;;;;;;;37.70;8.70;;;;;;;;;;5054533;28;20511;-73
2023/10/23 06:54:34;;;;;;;51.70;8.45;;;;;;;;;;5054138;28;20052;-74
2023/10/23 06:56:59;;;;;;;37.63;9.07;;;;;;;;;;5053388;28;20025;-74
2023/10/23 06:59:25;;;;;;;34.00;8.57;;;;;;;;;;5054089;28;20350;-74
2023/10/23 07:01:50;;;;;;;74.60;10.10;;;;;;;;;;5053990;28;20781;-73
2023/10/23 07:04:15;;;;;;;42.50;8.90;;;;;;;;;;5036146;28;20282;-73
2023/10/23 07:06:40;;;;;;;37.70;8.70;;;;;;;;;;5053890;28;20351;-73
2023/10/23 07:09:05;;;;;;;50.22;8.60;;;;;;;;;;5054188;28;20271;-74
2023/10/23 07:11:30;;;;;;;32.10;8.63;;;;;;;;;;5035907;28;20488;-73
2023/10/23 07:13:55;;;;;;;38.30;10.03;;;;;;;;;;5053872;28;20263;-74
2023/10/23 07:16:21;;;;;;;41.47;8.40;;;;;;;;;;5036276;28;20768;-74
2023/10/23 07:18:46;;;;;;;57.75;9.35;;;;;;;;;;5054491;28;20251;-73
2023/10/23 07:21:12;;;;;;;57.83;9.47;;;;;;;;;;5054806;28;20025;-73
2023/10/23 07:23:37;;;;;;;38.60;8.35;;;;;;;;;;5053616;28;20734;-73
2023/10/23 07:26:03;;;;;;;44.92;9.43;;;;;;;;;;5053612;28;20053;-73
2023/10/23 07:28:29;;;;;;;56.70;9.40;;;;;;;;;;5053853;28;20056;-73
2023/10/23 07:30:54;;;;;;;48.83;9.47;;;;;;;;;;5053677;28;20059;-72
2023/10/23 07:33:19;;;;;;;38.75;9.60;;;;;;;;;;5053489;28;20267;-72
2023/10/23 07:35:44;;;;;;;58.43;9.23;;;;;;;;;;5053699;28;20097;-72
2023/10/23 07:38:09;;;;;;;72.73;9.43;;;;;;;;;;5053482;28;20263;-72
2023/10/23 07:40:41;;;;;;;72.30;9.73;;;;;;;;;;5035540;28;20754;-72
2023/10/23 07:43:06;;;;;;;78.22;8.88;;;;;;;;;;5053363;28;20259;-73
2023/10/23 07:45:31;;;;;;;52.60;8.83;;;;;;;;;;5053656;28;20017;-72
2023/10/23 07:47:57;;;;;;;67.90;9.70;;;;;;;;;;5053240;28;20675;-72
2023/10/23 07:50:24;;;;;;;69.20;9.95;;;;;;;;;;5053151;28;20464;-72
2023/10/23 07:52:50;;;;;;;73.90;9.63;;;;;;;;;;5053236;28;20027;-72
2023/10/23 07:55:15;;;;;;;86.65;9.70;;;;;;;;;;5053609;28;20532;-72
2023/10/23 07:57:40;;;;;;;120.27;10.60;;;;;;;;;;5053236;28;20163;-72
2023/10/23 08:00:08;;;;;;;67.70;10.07;;;;;;;;;;5053095;28;20654;-72
2023/10/23 08:02:33;;;;;;;134.20;10.07;;;;;;;;;;5053218;28;20309;-72
2023/10/23 08:04:59;;;;;;;199.33;11.47;;;;;;;;;;5053176;28;20028;-72
2023/10/23 08:07:24;;;;;;;168.52;13.10;;;;;;;;;;5054991;28;20278;-72
2023/10/23 08:09:49;;;;;;;106.10;10.93;;;;;;;;;;5057253;28;20028;-72
2023/10/23 08:12:14;;;;;;;70.73;11.00;;;;;;;;;;5057031;28;20327;-72
2023/10/23 08:14:40;;;;;;;110.10;11.30;;;;;;;;;;5057320;28;20252;-72
2023/10/23 08:17:05;;;;;;;245.73;13.82;;;;;;;;;;5056861;28;20376;-72
2023/10/23 08:19:30;;;;;;;168.52;12.77;;;;;;;;;;5057111;28;20384;-72
2023/10/23 08:21:55;;;;;;;105.20;11.33;;;;;;;;;;5057057;28;20020;-72
2023/10/23 08:24:20;;;;;;;78.97;11.23;;;;;;;;;;5057049;28;20263;-72
2023/10/23 08:26:46;;;;;;;82.82;10.98;;;;;;;;;;5056895;28;20647;-72
2023/10/23 08:29:12;;;;;;;131.52;12.38;;;;;;;;;;5056731;28;20423;-72
2023/10/23 08:31:37;;;;;;;89.72;11.48;;;;;;;;;;5056729;28;20017;-72
2023/10/23 08:34:02;;;;;;;130.55;11.63;;;;;;;;;;5056895;28;20013;-72
2023/10/23 08:36:27;;;;;;;108.33;11.73;;;;;;;;;;5056776;28;20021;-72
2023/10/23 08:38:52;;;;;;;103.87;12.03;;;;;;;;;;5056830;28;20306;-72
2023/10/23 08:41:18;;;;;;;64.00;12.57;;;;;;;;;;5038729;28;20275;-72
2023/10/23 08:43:43;;;;;;;54.28;12.55;;;;;;;;;;5056793;28;20627;-72
2023/10/23 08:46:09;;;;;;;139.57;13.70;;;;;;;;;;5056655;28;20108;-71
2023/10/23 08:48:36;;;;;;;155.80;13.05;;;;;;;;;;5056596;28;20486;-73
2023/10/23 08:51:01;;;;;;;85.47;13.20;;;;;;;;;;5056450;28;20365;-72
2023/10/23 08:53:31;;;;;;;84.35;13.75;;;;;;;;;;5056388;28;20023;-72
2023/10/23 08:55:56;;;;;;;66.20;13.35;;;;;;;;;;5056421;28;20032;-72
2023/10/23 08:58:22;;;;;;;58.40;13.33;;;;;;;;;;5038879;28;20013;-73
2023/10/23 09:00:47;;;;;;;58.53;13.90;;;;;;;;;;5056375;28;20266;-72
2023/10/23 09:03:12;;;;;;;58.03;14.23;;;;;;;;;;5038399;28;20020;-72
2023/10/23 09:05:38;;;;;;;50.10;14.07;;;;;;;;;;5056202;28;20691;-73
2023/10/23 09:08:03;;;;;;;43.28;13.70;;;;;;;;;;5056111;28;20025;-71
2023/10/23 09:10:28;;;;;;;41.75;14.50;;;;;;;;;;5056507;28;20407;-73
2023/10/23 09:12:55;;;;;;;56.87;14.57;;;;;;;;;;5034952;28;20404;-73
2023/10/23 09:15:21;;;;;;;50.92;15.65;;;;;;;;;;5034953;28;20013;-73
2023/10/23 09:17:46;;;;;;;45.78;16.40;;;;;;;;;;5035883;28;20022;-73
2023/10/23 09:20:24;;;;;;;41.08;16.13;;;;;;;;;;5035271;28;20040;-73
2023/10/23 09:22:49;;;;;;;40.13;17.05;;;;;;;;;;5035899;28;20033;-72
2023/10/23 09:25:15;;;;;;;43.20;16.70;;;;;;;;;;5035920;28;20092;-73
2023/10/23 09:27:41;;;;;;;44.35;17.67;;;;;;;;;;5035775;28;20057;-73
2023/10/23 09:30:06;;;;;;;37.97;16.87;;;;;;;;;;5035740;28;20065;-73
2023/10/23 09:32:31;;;;;;;42.17;18.25;;;;;;;;;;5036045;28;20735;-73
2023/10/23 09:34:57;;;;;;;34.87;16.63;;;;;;;;;;5034472;28;20025;-73
2023/10/23 09:37:24;;;;;;;39.53;18.17;;;;;;;;;;5035855;28;20667;-73
2023/10/23 09:39:50;;;;;;;35.35;17.42;;;;;;;;;;5035766;28;20048;-73
2023/10/23 09:42:15;;;;;;;34.38;17.50;;;;;;;;;;5035592;28;20053;-73
2023/10/23 09:44:41;;;;;;;36.40;16.03;;;;;;;;;;5034279;28;20481;-73
2023/10/23 09:47:07;;;;;;;28.88;15.82;;;;;;;;;;5035642;28;20021;-73
2023/10/23 09:49:33;;;;;;;32.65;15.65;;;;;;;;;;5035419;28;20100;-73
2023/10/23 09:51:59;;;;;;;31.45;15.85;;;;;;;;;;5035458;28;20377;-73
2023/10/23 09:54:25;;;;;;;33.83;15.00;;;;;;;;;;5035504;28;20017;-73
2023/10/23 09:56:53;;;;;;;35.08;16.08;;;;;;;;;;5035386;28;20018;-73
2023/10/23 09:59:24;;;;;;;30.00;14.90;;;;;;;;;;5035335;28;20061;-73
2023/10/23 10:01:50;;;;;;;33.38;15.88;;;;;;;;;;5035340;28;20018;-73
2023/10/23 10:04:28;;;;;;;28.40;15.13;;;;;;;;;;5035343;28;20064;-72
2023/10/23 10:06:55;;;;;;;26.80;14.40;;;;;;;;;;5035322;28;20421;-73
2023/10/23 10:09:22;;;;;;;30.90;14.38;;;;;;;;;;5035173;28;20025;-73
2023/10/23 10:11:48;;;;;;;25.80;13.98;;;;;;;;;;5041423;28;20045;-72
2023/10/23 10:14:14;;;;;;;28.50;14.23;;;;;;;;;;5055078;28;20024;-73
2023/10/23 10:16:39;;;;;;;30.63;14.18;;;;;;;;;;5054900;28;20403;-73
2023/10/23 10:19:06;;;;;;;27.83;13.77;;;;;;;;;;5054986;28;20013;-72
2023/10/23 10:21:35;;;;;;;25.55;13.07;;;;;;;;;;5054807;28;20092;-73
2023/10/23 10:24:03;;;;;;;27.38;13.38;;;;;;;;;;5036999;28;20036;-71
2023/10/23 10:26:29;;;;;;;24.13;13.13;;;;;;;;;;5054808;28;20025;-72
2023/10/23 10:28:54;;;;;;;27.80;13.20;;;;;;;;;;5054692;28;20041;-72
2023/10/23 10:31:21;;;;;;;28.43;13.60;;;;;;;;;;5054498;28;20057;-72
2023/10/23 10:33:46;;;;;;;27.55;13.45;;;;;;;;;;5054460;28;20255;-72
2023/10/23 10:36:12;;;;;;;24.88;13.93;;;;;;;;;;5054452;28;20492;-72
2023/10/23 10:38:37;;;;;;;26.88;12.98;;;;;;;;;;5054507;28;20020;-72
2023/10/23 10:41:14;;;;;;;25.97;13.73;;;;;;;;;;5054382;28;20107;-72
2023/10/23 10:43:39;;;;;;;24.63;13.02;;;;;;;;;;5054460;28;20025;-73
2023/10/23 10:46:30;;;;;;;28.70;14.85;;;;;;;;;;5054401;28;20024;-72
2023/10/23 10:48:55;;;;;;;31.48;13.35;;;;;;;;;;5050128;28;20402;-72
2023/10/23 10:51:22;;;;;;;26.20;13.07;;;;;;;;;;5054230;28;20086;-72
2023/10/23 10:53:48;;;;;;;30.08;14.02;;;;;;;;;;5054268;28;20346;-72
2023/10/23 10:56:13;;;;;;;28.80;13.55;;;;;;;;;;5053992;28;20106;-72
2023/10/23 10:58:39;;;;;;;27.63;13.52;;;;;;;;;;5061161;28;20027;-73
2023/10/23 11:01:04;;;;;;;27.55;14.05;;;;;;;;;;5037281;28;20036;-72
2023/10/23 11:03:34;;;;;;;26.73;14.23;;;;;;;;;;5054362;28;20025;-72
2023/10/23 11:05:59;;;;;;;29.13;13.77;;;;;;;;;;5054167;28;20029;-72
2023/10/23 11:08:26;;;;;;;30.08;14.05;;;;;;;;;;5053890;28;20071;-71
2023/10/23 11:10:51;;;;;;;26.42;12.48;;;;;;;;;;5053786;28;20067;-72
2023/10/23 11:13:16;;;;;;;25.87;12.60;;;;;;;;;;5053807;28;20037;-71
2023/10/23 11:15:42;;;;;;;24.00;12.40;;;;;;;;;;5053716;28;20248;-72
2023/10/23 11:18:07;;;;;;;23.95;11.85;;;;;;;;;;5053822;28;20476;-72
2023/10/23 11:20:34;;;;;;;23.00;12.30;;;;;;;;;;5053704;28;20025;-72
2023/10/23 11:23:00;;;;;;;25.67;12.40;;;;;;;;;;5053760;28;20020;-72
2023/10/23 11:25:25;;;;;;;21.00;11.95;;;;;;;;;;5053723;28;20380;-72
2023/10/23 11:27:51;;;;;;;19.48;11.43;;;;;;;;;;5053599;28;20079;-72
2023/10/23 11:30:16;;;;;;;22.33;11.75;;;;;;;;;;5035708;28;20066;-73
2023/10/23 11:32:44;;;;;;;19.90;12.07;;;;;;;;;;5053431;28;20088;-72
2023/10/23 11:35:09;;;;;;;24.77;11.93;;;;;;;;;;5053465;28;20830;-72
2023/10/23 11:37:38;;;;;;;23.77;11.10;;;;;;;;;;5053522;28;20021;-72
2023/10/23 11:40:07;;;;;;;20.13;10.80;;;;;;;;;;5035515;28;20333;-72
2023/10/23 11:42:40;;;;;;;17.88;10.80;;;;;;;;;;5052810;28;20476;-72
2023/10/23 11:45:06;;;;;;;21.67;11.52;;;;;;;;;;5053328;28;20440;-73
2023/10/23 11:47:32;;;;;;;23.02;11.18;;;;;;;;;;5053327;28;20017;-72
2023/10/23 11:49:57;;;;;;;22.17;11.73;;;;;;;;;;5053421;28;20100;-72
2023/10/23 11:52:22;;;;;;;21.93;11.27;;;;;;;;;;5053567;28;20746;-72
2023/10/23 11:54:47;;;;;;;22.00;10.52;;;;;;;;;;5053314;28;20331;-72
2023/10/23 11:57:15;;;;;;;27.27;10.70;;;;;;;;;;5053238;28;20060;-72
2023/10/23 11:59:40;;;;;;;19.85;10.63;;;;;;;;;;5053379;28;20017;-72
2023/10/23 12:02:06;;;;;;;24.95;10.77;;;;;;;;;;5035308;28;20392;-72
2023/10/23 12:04:35;;;;;;;20.48;10.32;;;;;;;;;;5053191;28;20016;-72
2023/10/23 12:07:00;;;;;;;16.27;9.77;;;;;;;;;;5053228;28;20060;-73
2023/10/23 12:09:25;;;;;;;17.77;9.70;;;;;;;;;;5052971;28;20053;-73
2023/10/23 12:11:50;;;;;;;20.37;9.30;;;;;;;;;;5052926;28;20052;-74
2023/10/23 12:14:15;;;;;;;17.10;9.33;;;;;;;;;;5053100;28;20017;-73
2023/10/23 12:16:41;;;;;;;15.27;8.90;;;;;;;;;;5052919;28;20023;-73
2023/10/23 12:19:07;;;;;;;15.80;8.97;;;;;;;;;;5053240;28;20017;-73
2023/10/23 12:21:32;;;;;;;20.05;9.07;;;;;;;;;;5053009;28;20021;-72
2023/10/23 12:23:57;;;;;;;18.90;9.17;;;;;;;;;;5052900;28;20032;-73
2023/10/23 12:26:22;;;;;;;18.20;9.63;;;;;;;;;;5052902;28;20631;-73
2023/10/23 12:28:48;;;;;;;19.67;9.98;;;;;;;;;;5053024;28;20263;-72
2023/10/23 12:31:13;;;;;;;18.90;9.23;;;;;;;;;;5052719;28;20020;-73
2023/10/23 12:33:38;;;;;;;23.05;9.70;;;;;;;;;;5050955;28;20259;-73
2023/10/23 12:36:04;;;;;;;18.33;9.47;;;;;;;;;;5050761;28;20017;-71
2023/10/23 12:38:33;;;;;;;15.35;8.98;;;;;;;;;;5052447;28;20735;-72
2023/10/23 12:40:58;;;;;;;18.05;8.90;;;;;;;;;;5034486;28;20028;-72
2023/10/23 12:43:24;;;;;;;17.60;9.73;;;;;;;;;;5052614;28;20087;-72
2023/10/23 12:45:49;;;;;;;20.55;9.50;;;;;;;;;;5052842;28;20482;-72
2023/10/23 12:48:14;;;;;;;17.35;10.05;;;;;;;;;;5052645;28;20013;-71
2023/10/23 12:50:39;;;;;;;18.97;10.23;;;;;;;;;;5034817;28;20476;-73
2023/10/23 12:53:04;;;;;;;18.40;11.03;;;;;;;;;;5053766;28;20267;-73
2023/10/23 12:55:30;;;;;;;22.25;10.35;;;;;;;;;;5056517;28;20325;-73
2023/10/23 12:57:55;;;;;;;17.47;10.23;;;;;;;;;;5056498;28;20020;-73
2023/10/23 13:00:20;;;;;;;25.93;11.03;;;;;;;;;;5056369;28;20017;-72
2023/10/23 13:02:45;;;;;;;19.80;10.53;;;;;;;;;;5056434;28;20028;-73
2023/10/23 13:05:11;;;;;;;18.17;10.40;;;;;;;;;;5056371;28;20100;-73
2023/10/23 13:07:36;;;;;;;23.08;10.43;;;;;;;;;;5056426;28;20264;-72
2023/10/23 13:10:02;;;;;;;23.13;10.93;;;;;;;;;;5056219;28;20574;-71
2023/10/23 13:12:27;;;;;;;18.65;10.18;;;;;;;;;;5056307;28;20041;-73
2023/10/23 13:14:53;;;;;;;20.13;10.00;;;;;;;;;;5038306;28;20457;-73
2023/10/23 13:17:18;;;;;;;21.60;10.02;;;;;;;;;;5038120;28;20358;-73
2023/10/23 13:19:43;;;;;;;19.43;10.03;;;;;;;;;;5056340;28;20088;-73
2023/10/23 13:22:14;;;;;;;18.63;9.93;;;;;;;;;;5056467;28;20075;-73
2023/10/23 13:24:39;;;;;;;20.98;10.15;;;;;;;;;;5038546;28;20027;-73
2023/10/23 13:27:04;;;;;;;24.63;10.37;;;;;;;;;;5056171;28;20100;-73
2023/10/23 13:29:32;;;;;;;24.27;10.60;;;;;;;;;;5057076;28;20016;-73
2023/10/23 13:31:57;;;;;;;18.98;10.82;;;;;;;;;;5061367;28;20069;-72
2023/10/23 13:34:22;;;;;;;21.07;10.73;;;;;;;;;;5046497;28;20036;-73
2023/10/23 13:36:47;;;;;;;23.83;11.03;;;;;;;;;;5064744;28;20707;-72
2023/10/23 13:39:13;;;;;;;20.13;10.57;;;;;;;;;;5063589;28;20024;-72
2023/10/23 13:41:38;;;;;;;16.88;10.25;;;;;;;;;;5046249;28;20021;-72
2023/10/23 13:44:03;;;;;;;20.50;10.57;;;;;;;;;;5059564;28;20068;-73
2023/10/23 13:46:28;;;;;;;19.42;11.00;;;;;;;;;;5056430;28;20274;-73
2023/10/23 13:48:54;;;;;;;25.20;11.33;;;;;;;;;;5056401;28;20040;-72
2023/10/23 13:51:19;;;;;;;20.85;11.23;;;;;;;;;;5038718;28;20025;-73
2023/10/23 13:53:44;;;;;;;21.10;11.93;;;;;;;;;;5057019;28;20105;-72
2023/10/23 13:56:09;;;;;;;24.10;12.97;;;;;;;;;;5056294;28;20324;-72
2023/10/23 13:58:35;;;;;;;26.77;13.50;;;;;;;;;;5056213;28;20270;-72
2023/10/23 14:01:00;;;;;;;25.90;14.23;;;;;;;;;;5056193;28;20092;-72
2023/10/23 14:03:25;;;;;;;32.17;15.10;;;;;;;;;;5037712;28;20115;-72
2023/10/23 14:05:50;;;;;;;28.13;15.17;;;;;;;;;;5055089;28;20381;-72
2023/10/23 14:08:15;;;;;;;31.50;15.30;;;;;;;;;;5037813;28;20115;-73
2023/10/23 14:10:41;;;;;;;31.05;15.65;;;;;;;;;;5055371;28;20013;-71
2023/10/23 14:13:06;;;;;;;29.52;16.20;;;;;;;;;;5055266;28;20091;-72